createdAt,value
2024-02-10T00:01:52.607Z,13.20
2024-02-10T00:06:58.823Z,11.13
2024-02-10T00:12:11.089Z,14.50
2024-02-10T00:17:15.486Z,9.63
2024-02-10T00:22:18.998Z,15.90
2024-02-10T00:27:21.279Z,14.55
2024-02-10T00:32:27.470Z,16.80
2024-02-10T00:37:49.937Z,14.88
2024-02-10T00:42:58.952Z,21.90
2024-02-10T00:48:04.108Z,13.25
2024-02-10T00:53:07.732Z,15.32
2024-02-10T00:58:16.172Z,14.00
2024-02-10T01:03:27.594Z,15.25
2024-02-10T01:08:39.641Z,19.42
2024-02-10T01:14:11.228Z,23.90
2024-02-10T01:19:22.641Z,15.65
2024-02-10T01:25:01.746Z,16.45
2024-02-10T01:30:11.851Z,14.82
2024-02-10T01:35:14.254Z,9.90
2024-02-10T01:40:30.843Z,15.90
2024-02-10T01:45:38.727Z,14.13
2024-02-10T01:50:45.606Z,19.27
2024-02-10T01:55:52.240Z,29.80
2024-02-10T02:05:40.810Z,23.42
2024-02-10T02:10:50.714Z,21.70
2024-02-10T02:16:00.214Z,25.48
2024-02-10T02:21:12.365Z,19.85
2024-02-10T02:26:29.335Z,24.58
2024-02-10T02:31:36.770Z,18.88
2024-02-10T02:36:45.526Z,26.75
2024-02-10T02:41:56.367Z,20.05
2024-02-10T02:52:31.727Z,15.67
2024-02-10T02:57:52.697Z,14.13
2024-02-10T03:08:24.513Z,22.05
2024-02-10T03:13:47.811Z,17.10
2024-02-10T03:19:12.708Z,18.00
2024-02-10T03:24:21.615Z,20.05
2024-02-10T03:29:23.886Z,16.48
2024-02-10T03:34:26.508Z,29.85
2024-02-10T03:39:36.084Z,27.15
2024-02-10T03:44:50.951Z,15.67
2024-02-10T03:50:06.864Z,19.90
2024-02-10T03:55:12.742Z,16.75
2024-02-10T04:00:25.346Z,12.82
2024-02-10T04:05:35.776Z,15.82
2024-02-10T04:10:52.326Z,13.25
2024-02-10T04:15:59.277Z,12.10
2024-02-10T04:21:11.034Z,13.90
2024-02-10T04:26:31.047Z,12.63
2024-02-10T04:31:36.465Z,15.27
2024-02-10T04:36:40.360Z,14.10
2024-02-10T04:41:46.611Z,12.27
2024-02-10T04:46:48.876Z,10.68
2024-02-10T04:57:21.038Z,9.88
2024-02-10T05:02:26.333Z,14.13
2024-02-10T05:17:35.331Z,8.70
2024-02-10T05:22:40.375Z,9.20
2024-02-10T05:27:46.936Z,8.43
2024-02-10T05:32:51.825Z,10.43
2024-02-10T05:37:57.738Z,9.55
2024-02-10T05:43:06.750Z,5.70
2024-02-10T05:48:09.837Z,7.45
2024-02-10T05:53:15.146Z,10.18
2024-02-10T05:58:17.459Z,14.82
2024-02-10T06:03:30.591Z,7.32
2024-02-10T06:08:33.282Z,8.25
2024-02-10T06:13:37.267Z,6.90
2024-02-10T06:18:40.833Z,9.40
2024-02-10T06:23:44.077Z,7.90
2024-02-10T06:28:52.092Z,5.13
2024-02-10T06:33:56.099Z,6.75
2024-02-10T06:39:07.015Z,4.13
2024-02-10T06:49:12.811Z,2.40
2024-02-10T06:54:15.669Z,3.33
2024-02-10T06:59:19.168Z,5.10
2024-02-10T07:04:25.267Z,3.67
2024-02-10T07:09:27.688Z,2.92
2024-02-10T07:14:30.298Z,2.92
2024-02-10T07:19:36.769Z,4.97
2024-02-10T07:24:48.155Z,3.17
2024-02-10T07:29:51.612Z,4.57
2024-02-10T07:34:56.113Z,2.03
2024-02-10T07:39:58.491Z,4.00
2024-02-10T07:45:02.777Z,4.97
2024-02-10T07:50:09.484Z,3.00
2024-02-10T07:55:38.159Z,1.08
2024-02-10T08:00:42.328Z,2.65
2024-02-10T08:05:44.672Z,4.80
2024-02-10T08:10:48.909Z,11.80
2024-02-10T08:15:52.071Z,3.85
2024-02-10T08:20:54.663Z,3.70
2024-02-10T08:26:00.137Z,3.40
2024-02-10T08:31:05.413Z,2.03
2024-02-10T08:36:07.873Z,2.60
2024-02-10T08:41:15.595Z,3.70
2024-02-10T08:46:18.571Z,3.90
2024-02-10T08:51:22.014Z,3.78
2024-02-10T08:56:25.289Z,2.45
2024-02-10T09:01:27.510Z,2.78
2024-02-10T09:06:30.918Z,2.63
2024-02-10T09:11:44.972Z,2.53
2024-02-10T09:16:55.104Z,5.13
2024-02-10T09:21:59.769Z,1.20
2024-02-10T09:27:10.707Z,1.58
2024-02-10T09:32:13.307Z,1.10
2024-02-10T09:37:16.380Z,0.93
2024-02-10T09:42:24.639Z,1.27
2024-02-10T09:47:27.147Z,1.27
2024-02-10T09:52:30.794Z,1.10
2024-02-10T09:57:38.694Z,1.42
2024-02-10T10:02:54.452Z,1.02
2024-02-10T10:08:03.369Z,0.85
2024-02-10T10:13:11.975Z,0.85
2024-02-10T10:18:21.005Z,1.15
2024-02-10T10:23:25.488Z,1.10
2024-02-10T10:28:27.876Z,0.60
2024-02-10T10:33:31.680Z,2.60
2024-02-10T10:38:35.595Z,1.00
2024-02-10T10:43:48.035Z,1.05
2024-02-10T10:48:52.197Z,2.38
2024-02-10T10:53:58.601Z,1.27
2024-02-10T10:59:10.227Z,1.60
2024-02-10T11:04:16.135Z,1.20
2024-02-10T11:09:21.835Z,1.48
2024-02-10T11:14:24.175Z,1.08
2024-02-10T11:19:30.645Z,1.13
2024-02-10T11:24:33.303Z,1.98
2024-02-10T11:29:41.027Z,2.70
2024-02-10T11:34:47.839Z,2.40
2024-02-10T11:39:50.211Z,2.00
2024-02-10T11:44:55.229Z,1.35
2024-02-10T11:49:58.899Z,1.52
2024-02-10T11:55:04.639Z,1.75
2024-02-10T12:00:11.147Z,2.03
2024-02-10T12:05:14.860Z,1.88
2024-02-10T12:10:23.043Z,1.88
2024-02-10T12:15:25.453Z,1.88
2024-02-10T12:20:36.527Z,2.13
2024-02-10T12:25:40.125Z,7.70
2024-02-10T12:30:45.694Z,6.13
2024-02-10T12:35:55.620Z,6.00
2024-02-10T12:40:58.740Z,4.43
2024-02-10T12:46:00.963Z,2.88
2024-02-10T12:51:03.449Z,4.30
2024-02-10T12:56:06.374Z,5.47
2024-02-10T13:01:11.974Z,2.60
2024-02-10T13:06:14.380Z,9.32
2024-02-10T13:11:17.351Z,4.55
2024-02-10T13:16:20.348Z,3.15
2024-02-10T13:21:25.263Z,3.10
2024-02-10T13:26:27.475Z,4.20
2024-02-10T13:31:29.911Z,2.42
2024-02-10T13:36:37.838Z,2.83
2024-02-10T13:42:03.138Z,4.57
2024-02-10T13:47:24.517Z,4.45
2024-02-10T13:52:45.410Z,2.80
2024-02-10T13:58:09.695Z,2.75
2024-02-10T14:03:15.931Z,3.13
2024-02-10T14:08:37.162Z,2.10
2024-02-10T14:13:48.282Z,1.97
2024-02-10T14:18:51.008Z,2.97
2024-02-10T14:23:55.024Z,2.65
2024-02-10T14:28:58.971Z,6.93
2024-02-10T14:34:01.581Z,3.35
2024-02-10T14:39:15.266Z,3.20
2024-02-10T14:44:18.374Z,3.70
2024-02-10T14:49:23.284Z,1.65
2024-02-10T14:54:25.995Z,1.55
2024-02-10T14:59:30.823Z,3.00
2024-02-10T15:04:33.179Z,2.45
2024-02-10T15:09:35.472Z,1.60
2024-02-10T15:14:38.530Z,1.38
2024-02-10T15:19:41.420Z,1.75
2024-02-10T15:24:44.429Z,0.80
2024-02-10T15:29:47.753Z,2.03
2024-02-10T15:34:55.164Z,1.38
2024-02-10T15:40:26.461Z,1.35
2024-02-10T15:45:39.369Z,4.03
2024-02-10T15:50:49.511Z,1.35
2024-02-10T15:55:55.231Z,1.15
2024-02-10T16:01:01.808Z,1.02
2024-02-10T16:06:10.649Z,1.35
2024-02-10T16:11:13.260Z,3.15
2024-02-10T16:16:18.151Z,1.52
2024-02-10T16:21:31.291Z,2.63
2024-02-10T16:26:42.716Z,1.67
2024-02-10T16:31:49.125Z,1.15
2024-02-10T16:36:54.956Z,1.60
2024-02-10T16:41:58.704Z,1.10
2024-02-10T16:47:33.001Z,1.55
2024-02-10T16:52:39.808Z,1.15
2024-02-10T16:57:48.275Z,1.33
2024-02-10T17:03:00.745Z,1.45
2024-02-10T17:08:09.169Z,0.98
2024-02-10T17:13:16.131Z,0.73
2024-02-10T17:18:20.675Z,1.42
2024-02-10T17:23:25.686Z,1.30
2024-02-10T17:28:33.562Z,1.33
2024-02-10T17:33:37.297Z,1.52
2024-02-10T17:38:40.353Z,1.67
2024-02-10T17:43:54.206Z,3.58
2024-02-10T17:48:59.294Z,2.13
2024-02-10T17:54:01.871Z,1.50
2024-02-10T17:59:13.809Z,1.95
2024-02-10T18:04:19.174Z,3.22
2024-02-10T18:09:24.139Z,3.03
2024-02-10T18:14:26.225Z,4.43
2024-02-10T18:24:33.519Z,5.13
2024-02-10T18:29:36.025Z,3.75
2024-02-10T18:34:39.410Z,8.60
2024-02-10T18:39:41.794Z,6.18
2024-02-10T18:44:47.738Z,10.35
2024-02-10T18:49:59.605Z,8.70
2024-02-10T18:55:09.456Z,6.50
2024-02-10T19:00:20.878Z,5.68
2024-02-10T19:05:23.906Z,4.97
2024-02-10T19:10:26.269Z,7.82
2024-02-10T19:15:28.374Z,3.22
2024-02-10T19:25:35.430Z,3.50
2024-02-10T19:30:39.286Z,7.10
2024-02-10T19:35:43.260Z,6.03
2024-02-10T19:40:47.640Z,7.63
2024-02-10T19:45:49.890Z,5.85
2024-02-10T19:55:54.188Z,3.80
2024-02-10T20:00:58.700Z,4.38
2024-02-10T20:06:01.327Z,8.85
2024-02-10T20:11:11.724Z,4.20
2024-02-10T20:16:25.619Z,4.10
2024-02-10T20:21:32.287Z,3.65
2024-02-10T20:26:34.526Z,2.08
2024-02-10T20:31:37.998Z,1.92
2024-02-10T20:36:46.356Z,2.53
2024-02-10T20:41:48.602Z,8.23
2024-02-10T20:46:50.961Z,8.52
2024-02-10T20:51:57.807Z,8.73
2024-02-10T20:57:05.600Z,3.60
2024-02-10T21:02:08.384Z,3.53
2024-02-10T21:07:14.252Z,3.17
2024-02-10T21:12:18.058Z,2.55
2024-02-10T21:17:20.594Z,3.15
2024-02-10T21:22:23.033Z,3.47
2024-02-10T21:27:28.529Z,1.90
2024-02-10T21:32:31.487Z,4.10
2024-02-10T21:37:34.555Z,2.60
2024-02-10T21:42:41.412Z,3.80
2024-02-10T21:47:48.390Z,3.33
2024-02-10T21:52:50.805Z,2.72
2024-02-10T21:57:54.857Z,5.45
2024-02-10T22:02:57.811Z,3.38
2024-02-10T22:08:00.215Z,2.08
2024-02-10T22:13:02.507Z,3.30
2024-02-10T22:23:09.037Z,2.70
2024-02-10T22:28:14.087Z,2.80
2024-02-10T22:33:20.058Z,1.65
2024-02-10T22:38:24.267Z,2.15
2024-02-10T22:43:28.624Z,2.42
2024-02-10T22:48:34.338Z,3.22
2024-02-10T22:53:40.419Z,2.90
2024-02-10T22:58:42.955Z,2.33
2024-02-10T23:03:47.150Z,2.85
2024-02-10T23:08:50.056Z,6.03
2024-02-10T23:13:52.321Z,3.63
2024-02-10T23:18:55.230Z,2.88
2024-02-10T23:24:02.457Z,4.55
2024-02-10T23:29:05.347Z,2.15
2024-02-10T23:34:13.703Z,1.73
2024-02-10T23:39:22.544Z,2.30
2024-02-10T23:44:25.168Z,2.42
2024-02-10T23:49:28.444Z,3.25
2024-02-10T23:54:35.155Z,2.75
2024-02-10T23:59:40.100Z,2.58
